Decoded Metar for GCFV (FUERTEVENTURA in SPAIN) (IATA:FUE) | Meteo·Mobile Aviation Weather
aviador You're here:

GCFV Decoded Metar

FUERTEVENTURA in SPAIN
Report Time2019-01-23 07:30:00
UTC Time2019-01-23 07:53:54
Flight Rules vfr VFR
Wind020° at 15 kt
W.Decomp.*RWY 01: 14.5 kt HW 3.9 kt RCW
W.Rank020° ranks 6
Current wind is above 020° avg. (12.9)
Visibility9999 m
Phenomena:N/A
Clouds:Broken 040 Hf
Expected CloudBase > 3,200 ft AGL from Temp-Dew spread
Ceiling4,000 ft
Temp17°C (ISA +2)
Dew Point09°C (59% RH)
AAT11.4°C
QNH1024 hPa
Density Alt115 ft
Elevation75 ft
Report Wrong Elevation
Raw Report
GCFV 230730Z 02015KT 9999 BKN040 17/09 Q1024=

Extra information for GCFV:More info

Metar Taf Metar & Taf Last 4 Metars F.Rules Stats Wind Profile Meteogram Temp Stats Airport Information Weather charts Add Link Nearby VenuesMetar ALERT Operation Metar Decoded Social comments